Time;durP1;ratioP1;P1;durP2;ratioP2;P2;SDS_P1;SDS_P2;PMS_P1;PMS_P2;Temp;Humidity;BMP_temperature;BMP_pressure;BME280_temperature;BME280_humidity;BME280_pressure;Samples;Min_cycle;Max_cycle;Signal;HPM_P1;HPM_P2
2021/12/05 00:22:47;;;;;;;5.57;1.50;;;;;;;0.51;84.62;92690.84;4894375;29;20655;-70
2021/12/05 00:25:21;;;;;;;4.43;1.90;;;;;;;0.51;84.17;92680.06;4893460;29;20052;-70
2021/12/05 00:28:00;;;;;;;3.38;1.70;;;;;;;0.17;86.17;92686.50;4894181;29;20056;-70
2021/12/05 00:47:04;;;;;;;4.87;1.90;;;;;;;0.01;87.17;92685.28;4910087;29;20363;-69
2021/12/05 01:10:47;;;;;;;5.70;2.92;;;;;;;-0.31;88.87;92688.56;4915385;29;20040;-69
2021/12/05 01:13:30;;;;;;;4.20;1.93;;;;;;;-0.30;88.84;92688.22;4913795;29;20043;-69
2021/12/05 01:16:00;;;;;;;5.60;1.98;;;;;;;-0.18;89.05;92697.09;4915434;29;20063;-69
2021/12/05 01:18:27;;;;;;;6.03;2.10;;;;;;;-0.13;89.17;92697.53;4914210;29;20055;-69
2021/12/05 01:20:59;;;;;;;4.93;1.38;;;;;;;-0.17;89.14;92699.44;4915191;29;20044;-68
2021/12/05 01:23:39;;;;;;;6.20;1.85;;;;;;;-0.12;89.90;92695.59;4915362;29;20047;-70
2021/12/05 01:26:14;;;;;;;5.13;1.50;;;;;;;-0.23;90.26;92692.84;4915100;29;20052;-69
2021/12/05 01:31:32;;;;;;;4.47;1.60;;;;;;;-0.11;90.25;92711.41;4908035;29;20040;-69
2021/12/05 01:37:33;;;;;;;3.92;1.60;;;;;;;-0.06;90.32;92708.38;4915590;29;20054;-69
2021/12/05 02:09:35;;;;;;;4.68;2.22;;;;;;;0.29;89.02;92711.59;4873754;29;20068;-69
2021/12/05 02:43:10;;;;;;;3.88;1.60;;;;;;;0.66;88.10;92686.25;4894953;29;20044;-70
2021/12/05 02:45:40;;;;;;;3.72;1.70;;;;;;;0.70;87.83;92689.72;4894907;29;20048;-70
2021/12/05 02:48:08;;;;;;;4.13;1.50;;;;;;;0.67;88.08;92682.41;4894713;29;20061;-70
2021/12/05 02:50:37;;;;;;;3.33;1.63;;;;;;;0.71;87.90;92683.19;4894903;29;20071;-70
2021/12/05 02:53:15;;;;;;;4.75;1.75;;;;;;;0.65;88.00;92682.00;4894738;29;20055;-69
2021/12/05 02:55:44;;;;;;;3.55;1.58;;;;;;;0.57;88.39;92662.31;4894853;29;20056;-70
2021/12/05 03:01:09;;;;;;;3.50;1.70;;;;;;;0.37;88.65;92643.75;4894409;29;20048;-70
2021/12/05 03:03:37;;;;;;;4.70;1.50;;;;;;;0.35;89.05;92639.91;4894851;29;20151;-69
2021/12/05 03:06:22;;;;;;;5.38;1.52;;;;;;;0.35;89.40;92646.06;4893675;29;20055;-69
2021/12/05 03:08:57;;;;;;;4.53;1.73;;;;;;;0.28;89.30;92642.56;4897358;29;20041;-69
2021/12/05 03:11:25;;;;;;;5.68;2.22;;;;;;;0.07;90.03;92641.38;4893672;29;20845;-69
2021/12/05 03:13:53;;;;;;;6.37;1.93;;;;;;;-0.09;91.23;92639.00;4894983;29;20410;-70
2021/12/05 03:16:21;;;;;;;5.53;1.95;;;;;;;-0.18;92.25;92643.97;4893871;29;20664;-69
2021/12/05 03:18:49;;;;;;;4.63;2.40;;;;;;;-0.17;92.24;92642.81;4894827;29;20052;-69
2021/12/05 03:21:16;;;;;;;27.42;11.45;;;;;;;-0.01;91.94;92634.41;4894461;29;20047;-70
2021/12/05 03:23:45;;;;;;;15.55;8.02;;;;;;;0.08;91.54;92632.13;4894533;29;20421;-70
2021/12/05 03:26:16;;;;;;;10.53;5.90;;;;;;;0.14;91.43;92627.91;4893876;29;20052;-69
2021/12/05 03:28:44;;;;;;;7.13;4.20;;;;;;;0.10;90.80;92637.13;4894336;29;20049;-70
2021/12/05 03:31:11;;;;;;;7.75;4.00;;;;;;;0.01;92.16;92648.28;4894285;29;20074;-69
2021/12/05 03:33:40;;;;;;;6.82;4.13;;;;;;;0.02;91.85;92649.84;4894564;29;20486;-69
2021/12/05 03:36:10;;;;;;;9.13;4.20;;;;;;;-0.05;92.48;92642.47;4894165;29;20056;-69
2021/12/05 03:38:39;;;;;;;8.37;3.47;;;;;;;-0.12;92.88;92644.38;4894320;29;20103;-69
2021/12/05 03:41:08;;;;;;;8.30;3.25;;;;;;;-0.18;93.20;92640.50;4894087;29;20045;-69
2021/12/05 03:43:39;;;;;;;6.95;3.15;;;;;;;-0.24;93.78;92643.56;4893142;29;20048;-71
2021/12/05 03:46:06;;;;;;;7.18;2.92;;;;;;;-0.08;93.70;92648.66;4894046;29;20054;-69
2021/12/05 03:48:38;;;;;;;6.40;3.25;;;;;;;-0.03;93.23;92639.41;4894089;29;20107;-70
2021/12/05 03:51:07;;;;;;;7.17;3.50;;;;;;;0.04;93.49;92639.44;4894090;29;20044;-69
2021/12/05 03:53:34;;;;;;;6.57;3.10;;;;;;;-0.03;93.33;92637.47;4893904;29;20055;-70
2021/12/05 03:56:08;;;;;;;7.43;3.15;;;;;;;-0.11;93.42;92641.28;4894106;29;20049;-69
2021/12/05 03:58:37;;;;;;;8.07;3.25;;;;;;;-0.11;93.67;92635.13;4894194;29;20047;-69
2021/12/05 04:01:07;;;;;;;6.78;3.30;;;;;;;-0.08;93.50;92629.75;4893850;29;20063;-69
2021/12/05 04:03:36;;;;;;;8.67;3.30;;;;;;;-0.08;93.85;92626.28;4893995;29;20059;-70
2021/12/05 04:06:07;;;;;;;9.77;3.40;;;;;;;-0.06;93.49;92624.75;4893802;29;20086;-69
2021/12/05 04:08:35;;;;;;;5.95;3.20;;;;;;;0.03;93.64;92637.13;4893623;29;20049;-70
2021/12/05 04:11:06;;;;;;;10.30;3.67;;;;;;;-0.07;93.36;92627.84;4893722;29;20417;-70
2021/12/05 04:13:33;;;;;;;9.18;3.60;;;;;;;-0.06;93.34;92637.47;4894065;29;20041;-69
2021/12/05 04:16:04;;;;;;;8.87;3.03;;;;;;;-0.05;93.70;92629.00;4893489;29;20055;-69
2021/12/05 04:18:31;;;;;;;6.72;3.10;;;;;;;-0.14;93.62;92628.59;4894023;29;20040;-69
2021/12/05 04:21:03;;;;;;;8.23;2.90;;;;;;;-0.13;94.18;92624.72;4895925;29;20052;-69
2021/12/05 04:23:31;;;;;;;6.20;2.90;;;;;;;-0.06;93.67;92627.47;4897709;29;20036;-69
2021/12/05 04:25:58;;;;;;;39.88;17.75;;;;;;;0.00;94.02;92630.56;4897596;29;20047;-69
2021/12/05 04:28:26;;;;;;;13.53;5.93;;;;;;;0.10;93.61;92620.94;4896185;29;20074;-69
2021/12/05 04:30:54;;;;;;;10.50;4.07;;;;;;;0.13;92.59;92628.28;4897507;29;20057;-69
2021/12/05 04:33:23;;;;;;;9.35;3.40;;;;;;;0.16;92.78;92625.59;4897868;29;20044;-69
2021/12/05 04:35:50;;;;;;;8.13;3.38;;;;;;;0.15;92.68;92623.28;4912165;29;20043;-70
2021/12/05 04:38:17;;;;;;;8.48;3.67;;;;;;;0.09;92.85;92617.47;4896618;29;20664;-69
2021/12/05 04:40:48;;;;;;;7.63;2.80;;;;;;;0.15;92.17;92615.19;4897290;29;20044;-69
2021/12/05 04:43:15;;;;;;;6.10;2.38;;;;;;;0.06;91.79;92615.56;4895879;29;20050;-69
2021/12/05 04:45:41;;;;;;;7.18;3.88;;;;;;;0.15;91.88;92615.19;4901781;29;20048;-69
2021/12/05 04:48:09;;;;;;;6.18;3.00;;;;;;;0.24;92.12;92609.41;4915790;29;20048;-69
2021/12/05 04:50:37;;;;;;;6.63;3.03;;;;;;;0.31;91.34;92612.91;4916084;29;20053;-69
2021/12/05 04:53:08;;;;;;;6.57;3.20;;;;;;;0.14;91.62;92609.03;4915798;29;20044;-69
2021/12/05 04:55:36;;;;;;;5.55;2.92;;;;;;;0.04;92.78;92606.28;4915759;29;20095;-69
2021/12/05 04:58:05;;;;;;;6.53;2.92;;;;;;;-0.02;92.91;92608.56;4915791;29;20103;-69
2021/12/05 05:00:39;;;;;;;6.45;2.55;;;;;;;0.03;92.47;92608.22;4915999;29;20414;-69
2021/12/05 05:03:08;;;;;;;5.53;2.53;;;;;;;0.04;92.09;92600.88;4915521;29;20056;-69
2021/12/05 05:05:36;;;;;;;6.07;2.00;;;;;;;0.06;91.81;92602.06;4915837;29;20052;-70
2021/12/05 05:08:03;;;;;;;3.85;1.85;;;;;;;0.12;90.90;92605.94;4915098;29;20060;-69
2021/12/05 05:10:32;;;;;;;5.13;2.35;;;;;;;0.16;90.54;92609.41;4915710;29;20044;-69
2021/12/05 05:12:59;;;;;;;4.30;2.00;;;;;;;0.19;90.23;92615.97;4915576;29;20051;-69
2021/12/05 05:15:30;;;;;;;6.97;2.38;;;;;;;0.13;90.75;92609.41;4915641;29;20048;-69
2021/12/05 05:17:59;;;;;;;5.60;2.10;;;;;;;0.01;90.38;92609.75;4915405;29;20052;-69
2021/12/05 05:50:16;;;;;;;6.10;3.10;;;;;;;-0.04;92.41;92635.94;4914761;29;20561;-69
2021/12/05 05:52:43;;;;;;;6.07;3.10;;;;;;;-0.01;92.38;92624.38;4914895;29;20386;-69
2021/12/05 05:55:11;;;;;;;5.13;2.10;;;;;;;-0.06;92.09;92626.66;4914410;29;20047;-69
2021/12/05 05:57:48;;;;;;;4.97;1.80;;;;;;;-0.12;91.87;92631.69;4914919;29;20063;-69
2021/12/05 06:00:28;;;;;;;5.00;2.17;;;;;;;-0.13;92.55;92627.41;4914361;29;20051;-69
2021/12/05 06:05:41;;;;;;;7.00;2.10;;;;;;;-0.13;92.43;92624.72;4913662;29;20059;-69
2021/12/05 06:08:08;;;;;;;7.10;2.20;;;;;;;-0.10;92.58;92625.88;4914131;29;20063;-69
2021/12/05 06:10:34;;;;;;;4.60;2.00;;;;;;;-0.10;92.06;92625.88;4914524;29;20520;-69
2021/12/05 06:13:02;;;;;;;4.50;1.85;;;;;;;-0.10;92.19;92631.28;4914111;29;20097;-69
2021/12/05 06:15:30;;;;;;;4.93;1.80;;;;;;;-0.07;92.23;92627.84;4914673;29;20052;-69
2021/12/05 06:17:57;;;;;;;4.22;1.90;;;;;;;-0.13;91.95;92629.34;4914055;29;20044;-69
2021/12/05 06:20:26;;;;;;;4.45;1.98;;;;;;;-0.16;92.32;92625.50;4914427;29;20052;-69
2021/12/05 06:22:59;;;;;;;5.00;1.90;;;;;;;-0.09;92.13;92622.06;4913017;29;20060;-69
2021/12/05 06:25:28;;;;;;;5.18;1.90;;;;;;;-0.04;91.65;92624.38;4914208;29;20052;-69
2021/12/05 06:28:01;;;;;;;6.72;3.08;;;;;;;0.04;92.15;92625.97;4914125;29;20079;-69
2021/12/05 06:30:45;;;;;;;9.88;3.38;;;;;;;-0.12;91.99;92620.91;4914589;29;20044;-69
2021/12/05 06:48:52;;;;;;;6.27;2.30;;;;;;;-0.16;90.94;92630.88;4894955;29;20541;-69
2021/12/05 06:51:27;;;;;;;6.35;2.10;;;;;;;-0.05;91.40;92628.22;4894676;29;20051;-69
2021/12/05 06:53:55;;;;;;;8.48;2.78;;;;;;;-0.21;91.54;92626.63;4894357;29;20055;-68
2021/12/05 06:56:22;;;;;;;5.40;2.50;;;;;;;-0.15;91.38;92628.97;4895067;29;20038;-69
2021/12/05 06:58:50;;;;;;;6.93;2.35;;;;;;;-0.18;91.49;92624.31;4894669;29;20117;-69
2021/12/05 07:01:17;;;;;;;12.83;5.27;;;;;;;-0.27;91.72;92616.59;4894606;29;20049;-69
2021/12/05 07:03:47;;;;;;;9.48;3.50;;;;;;;-0.30;91.54;92607.34;4894655;29;20095;-69
2021/12/05 07:06:22;;;;;;;6.85;3.05;;;;;;;-0.38;91.92;92613.84;4894305;29;20055;-69
2021/12/05 07:08:53;;;;;;;11.35;4.30;;;;;;;-0.31;91.59;92621.94;4894455;29;20054;-69
2021/12/05 07:19:31;;;;;;;10.98;3.42;;;;;;;-0.12;90.73;92628.97;4894638;29;20040;-69
2021/12/05 07:22:02;;;;;;;10.20;4.32;;;;;;;0.02;90.39;92630.16;4894078;29;20052;-69
2021/12/05 07:41:47;;;;;;;8.93;2.93;;;;;;;-0.05;91.61;92625.53;4894162;29;20060;-69
2021/12/05 07:43:58;;;;;;;7.30;2.53;;;;;;;-0.09;92.16;92628.22;4892469;29;20087;-69
2021/12/05 07:46:25;;;;;;;6.10;2.63;;;;;;;-0.14;92.66;92625.88;4919241;29;20051;-69
2021/12/05 07:48:52;;;;;;;6.95;2.97;;;;;;;-0.12;92.78;92620.91;4912630;29;20040;-69
2021/12/05 07:54:08;;;;;;;12.27;4.17;;;;;;;0.40;90.61;92628.72;4913030;29;20044;-70
2021/12/05 07:56:48;;;;;;;8.15;3.30;;;;;;;0.75;89.30;92630.72;4907661;29;21435;-71
2021/12/05 08:16:05;;;;;;;7.30;2.78;;;;;;;0.58;87.71;92643.06;4908706;29;20058;-70
2021/12/05 08:18:32;;;;;;;5.32;2.67;;;;;;;0.77;87.06;92643.84;4915750;29;21015;-69
2021/12/05 08:21:03;;;;;;;6.23;3.40;;;;;;;0.70;87.08;92649.22;4916082;29;20052;-69
2021/12/05 08:23:29;;;;;;;4.88;2.10;;;;;;;0.74;86.39;92647.28;4916698;29;20055;-69
2021/12/05 08:26:06;;;;;;;5.55;2.50;;;;;;;0.77;85.69;92647.31;4916159;29;20142;-69
2021/12/05 08:31:33;;;;;;;4.60;2.10;;;;;;;0.78;86.01;92651.53;4916193;29;20077;-69
2021/12/05 08:34:18;;;;;;;6.17;2.20;;;;;;;0.85;86.49;92641.91;4916030;29;20101;-68
2021/12/05 08:45:44;;;;;;;6.32;2.55;;;;;;;1.68;83.26;92645.31;4915276;29;20801;-69
2021/12/05 09:28:43;;;;;;;6.87;2.80;;;;;;;0.99;84.16;92647.31;4895998;29;20053;-69
2021/12/05 10:13:14;;;;;;;5.68;3.20;;;;;;;7.66;54.91;92608.41;4914304;29;20040;-70
2021/12/05 10:15:39;;;;;;;7.15;3.40;;;;;;;6.95;57.14;92605.44;4907020;29;20043;-69
2021/12/05 10:38:12;;;;;;;12.57;8.73;;;;;;;10.95;47.21;92595.81;4913208;29;20050;-69
2021/12/05 10:41:06;;;;;;;9.52;6.30;;;;;;;11.03;46.92;92593.53;4914223;29;20482;-69
2021/12/05 10:43:33;;;;;;;7.63;4.50;;;;;;;11.68;45.02;92589.78;4913404;29;20801;-71
2021/12/05 10:46:07;;;;;;;5.70;2.80;;;;;;;10.70;46.63;92583.78;4913114;29;20056;-70
2021/12/05 10:48:42;;;;;;;5.63;3.20;;;;;;;6.92;56.02;92592.63;4914401;29;20036;-68
2021/12/05 10:51:19;;;;;;;7.80;4.50;;;;;;;7.42;56.07;92599.63;4913294;29;20257;-70
2021/12/05 10:53:53;;;;;;;7.13;3.63;;;;;;;6.50;58.42;92595.88;4913866;29;20036;-70
2021/12/05 10:56:28;;;;;;;6.00;3.47;;;;;;;5.47;61.96;92587.72;4913036;29;20048;-70
2021/12/05 10:59:13;;;;;;;5.15;2.90;;;;;;;4.85;63.24;92596.09;4927871;29;20390;-69
2021/12/05 11:01:51;;;;;;;5.35;2.92;;;;;;;5.53;63.88;92594.22;4914032;29;20044;-69
2021/12/05 11:04:27;;;;;;;4.93;2.13;;;;;;;4.39;64.84;92590.13;4913550;29;20043;-69
2021/12/05 11:07:14;;;;;;;6.72;3.33;;;;;;;3.66;69.30;92587.91;4912435;29;20072;-68
2021/12/05 11:09:42;;;;;;;5.78;2.95;;;;;;;5.21;63.86;92590.06;4913851;29;20489;-69
2021/12/05 11:12:24;;;;;;;6.07;2.60;;;;;;;6.51;59.70;92577.56;4912724;29;20044;-70
2021/12/05 11:14:57;;;;;;;9.27;3.90;;;;;;;7.83;55.67;92572.84;4913395;29;20405;-70
2021/12/05 11:17:26;;;;;;;9.37;4.57;;;;;;;9.67;50.89;92575.22;4912446;29;20337;-70
2021/12/05 11:19:58;;;;;;;4.88;2.17;;;;;;;10.06;48.30;92567.66;4913144;29;20054;-68
2021/12/05 11:22:28;;;;;;;4.38;2.00;;;;;;;8.95;50.38;92563.06;4912537;29;20793;-67
2021/12/05 11:25:03;;;;;;;6.22;2.70;;;;;;;8.21;54.51;92573.00;4912827;29;20059;-69
2021/12/05 11:27:56;;;;;;;9.95;3.80;;;;;;;5.45;60.83;92581.91;4913640;29;20054;-70
2021/12/05 11:30:35;;;;;;;13.87;4.90;;;;;;;6.09;61.39;92575.31;4911898;29;20244;-69
2021/12/05 11:33:05;;;;;;;6.28;3.10;;;;;;;6.54;58.88;92579.44;4912343;29;20056;-69
2021/12/05 11:35:39;;;;;;;6.55;3.30;;;;;;;6.38;59.21;92582.91;4913470;29;20048;-70
2021/12/05 11:38:18;;;;;;;7.38;2.88;;;;;;;5.75;61.36;92578.25;4911193;29;20482;-69
2021/12/05 11:40:58;;;;;;;6.50;3.42;;;;;;;5.81;60.58;92576.59;4913677;29;20057;-69
2021/12/05 11:43:25;;;;;;;10.30;2.70;;;;;;;5.89;60.83;92579.94;4912335;29;20758;-69
2021/12/05 11:46:11;;;;;;;9.45;2.30;;;;;;;5.66;62.15;92576.09;4906726;29;20048;-70
2021/12/05 11:49:03;;;;;;;14.82;5.50;;;;;;;5.45;63.37;92571.78;4893758;29;20079;-69
2021/12/05 11:51:46;;;;;;;6.70;2.33;;;;;;;4.69;63.35;92577.69;4893413;29;20055;-69
2021/12/05 11:54:20;;;;;;;12.32;5.00;;;;;;;4.52;65.06;92579.47;4893813;29;20049;-69
2021/12/05 11:57:15;;;;;;;4.90;1.90;;;;;;;4.17;65.73;92576.06;4893673;29;20549;-69
2021/12/05 11:59:45;;;;;;;15.52;4.18;;;;;;;3.68;66.17;92577.41;4894437;29;20050;-69
2021/12/05 12:02:23;;;;;;;9.00;2.10;;;;;;;3.68;66.46;92572.00;4893631;29;20076;-69
2021/12/05 12:04:55;;;;;;;9.80;3.60;;;;;;;4.02;65.69;92571.97;4894284;29;20043;-70
2021/12/05 12:07:29;;;;;;;7.32;2.10;;;;;;;3.92;65.43;92573.66;4892994;29;21758;-69
2021/12/05 12:10:30;;;;;;;13.37;3.00;;;;;;;4.14;63.91;92565.25;4893559;29;20051;-68
2021/12/05 12:13:09;;;;;;;11.35;2.10;;;;;;;3.82;64.07;92573.78;4893154;29;20060;-68
2021/12/05 12:15:38;;;;;;;4.03;1.33;;;;;;;3.52;63.89;92573.34;4894344;29;20462;-69
2021/12/05 12:18:14;;;;;;;9.18;2.10;;;;;;;4.09;64.44;92580.06;4893367;29;20041;-68
2021/12/05 12:20:45;;;;;;;6.40;1.73;;;;;;;3.51;64.34;92577.22;4892960;29;20051;-69
2021/12/05 12:23:15;;;;;;;4.17;1.30;;;;;;;3.65;64.80;92570.09;4893491;29;20053;-69
2021/12/05 12:25:45;;;;;;;2.58;1.30;;;;;;;3.55;66.39;92571.75;4893830;29;20049;-69
2021/12/05 12:28:13;;;;;;;3.20;1.30;;;;;;;4.12;64.45;92570.31;4893324;29;20048;-69
2021/12/05 12:30:43;;;;;;;4.85;1.20;;;;;;;4.11;62.72;92566.84;4923577;28;20074;-70
2021/12/05 12:33:18;;;;;;;4.18;1.40;;;;;;;4.60;61.71;92563.84;4906616;28;20059;-71
2021/12/05 12:35:46;;;;;;;4.00;1.23;;;;;;;4.61;62.08;92565.41;4900847;28;20077;-65
2021/12/05 12:38:24;;;;;;;3.83;1.40;;;;;;;4.64;60.09;92567.28;4925982;28;20986;-66
2021/12/05 12:41:01;;;;;;;3.50;1.50;;;;;;;4.57;63.28;92559.25;4927660;28;20043;-72
2021/12/05 12:43:37;;;;;;;6.25;3.60;;;;;;;4.17;64.87;92556.31;4930044;28;20750;-71
2021/12/05 12:46:30;;;;;;;7.35;4.15;;;;;;;3.98;63.55;92561.19;4910729;28;20421;-72
2021/12/05 12:49:15;;;;;;;6.83;3.53;;;;;;;3.43;65.63;92564.91;4894681;29;20095;-67
2021/12/05 12:51:43;;;;;;;5.32;2.25;;;;;;;3.77;67.06;92556.78;4891964;29;20048;-73
2021/12/05 12:54:14;;;;;;;3.70;1.55;;;;;;;3.76;65.43;92559.88;4905992;29;20045;-71
2021/12/05 12:56:58;;;;;;;4.70;2.65;;;;;;;3.69;66.36;92555.31;4900706;29;20044;-71
2021/12/05 12:59:29;;;;;;;8.48;3.90;;;;;;;3.36;67.83;92556.81;4896169;29;20786;-74
2021/12/05 13:02:37;;;;;;;3.70;1.70;;;;;;;3.38;66.53;92557.19;4910370;29;20060;-73
2021/12/05 13:05:04;;;;;;;5.38;1.92;;;;;;;3.54;67.28;92568.28;4910438;29;20044;-72
2021/12/05 13:10:09;;;;;;;5.50;1.70;;;;;;;4.07;63.83;92566.13;4908491;29;20056;-70
2021/12/05 13:12:42;;;;;;;5.63;3.00;;;;;;;3.55;67.58;92561.66;4911308;29;20036;-71
2021/12/05 13:15:20;;;;;;;3.87;1.97;;;;;;;3.84;65.48;92566.75;4924684;29;20048;-70
2021/12/05 13:17:54;;;;;;;4.15;1.80;;;;;;;3.97;64.70;92572.44;4911328;29;20070;-71
2021/12/05 13:20:26;;;;;;;5.38;2.50;;;;;;;4.25;64.96;92571.31;4910293;29;21446;-72
2021/12/05 13:23:15;;;;;;;5.18;2.38;;;;;;;3.77;65.83;92569.56;4910649;29;20058;-70
2021/12/05 13:26:06;;;;;;;5.35;2.88;;;;;;;3.68;65.44;92572.78;4910325;29;20700;-72
2021/12/05 13:28:45;;;;;;;4.77;2.40;;;;;;;3.03;67.23;92572.63;4909862;29;20081;-70
2021/12/05 13:31:27;;;;;;;3.92;1.55;;;;;;;2.87;68.15;92577.78;4891227;29;20502;-65
2021/12/05 13:34:18;;;;;;;5.43;1.98;;;;;;;3.18;68.04;92576.00;4892224;29;20052;-66
2021/12/05 13:36:46;;;;;;;4.72;2.33;;;;;;;3.12;67.54;92580.28;4892704;29;20036;-67
2021/12/05 13:39:48;;;;;;;4.88;1.95;;;;;;;3.11;67.26;92578.75;4891952;29;20718;-68
2021/12/05 13:42:27;;;;;;;3.57;1.77;;;;;;;3.35;66.25;92583.19;4880589;29;20059;-68
2021/12/05 13:44:56;;;;;;;2.95;1.20;;;;;;;3.45;65.75;92581.53;4890557;29;20422;-68
2021/12/05 13:47:29;;;;;;;9.40;5.07;;;;;;;3.29;67.52;92573.19;4892825;29;20045;-68
2021/12/05 13:49:56;;;;;;;3.60;1.42;;;;;;;3.32;67.21;92583.19;4890536;29;20410;-68
2021/12/05 13:52:45;;;;;;;9.45;2.80;;;;;;;3.48;66.78;92571.81;4891376;29;20056;-66
2021/12/05 13:55:49;;;;;;;11.07;6.00;;;;;;;3.03;69.63;92571.88;4906053;29;20067;-69
2021/12/05 13:58:42;;;;;;;8.75;2.30;;;;;;;3.32;68.61;92581.28;4891430;29;20215;-69
2021/12/05 14:01:12;;;;;;;8.88;4.80;;;;;;;3.27;69.57;92584.41;4910352;29;20052;-68
2021/12/05 14:03:59;;;;;;;7.75;4.22;;;;;;;2.57;70.83;92590.75;4911045;29;20060;-68
2021/12/05 14:06:49;;;;;;;5.95;2.38;;;;;;;2.52;71.94;92590.44;4910031;29;20078;-66
2021/12/05 14:09:36;;;;;;;8.47;3.23;;;;;;;2.54;71.45;92591.56;4910391;29;20059;-64
2021/12/05 14:12:03;;;;;;;11.93;4.47;;;;;;;2.47;71.94;92588.13;4909937;29;20058;-64
2021/12/05 14:14:35;;;;;;;10.02;3.85;;;;;;;2.39;72.21;92590.91;4910817;29;20498;-64
2021/12/05 14:17:09;;;;;;;7.78;3.53;;;;;;;2.29;73.17;92580.88;4910642;29;20048;-66
2021/12/05 14:19:38;;;;;;;5.85;2.25;;;;;;;2.39;72.89;92582.78;4911216;29;20052;-62
2021/12/05 14:22:08;;;;;;;7.73;2.30;;;;;;;2.34;72.95;92594.00;4909555;29;20044;-63
2021/12/05 14:24:38;;;;;;;8.82;3.42;;;;;;;2.33;73.50;92586.28;4910944;29;20078;-63
2021/12/05 14:27:09;;;;;;;18.25;7.50;;;;;;;2.30;73.48;92585.16;4910475;29;20055;-62
2021/12/05 14:29:40;;;;;;;8.07;3.50;;;;;;;2.23;73.70;92596.00;4910623;29;20058;-64
2021/12/05 14:32:07;;;;;;;7.15;3.22;;;;;;;2.22;72.93;92596.41;4908543;29;20600;-63
2021/12/05 14:34:35;;;;;;;8.50;3.10;;;;;;;2.17;73.19;92594.88;4911331;29;20044;-62
2021/12/05 14:37:05;;;;;;;7.47;3.13;;;;;;;2.12;73.48;92596.06;4910332;29;20078;-74
2021/12/05 14:39:39;;;;;;;5.70;2.78;;;;;;;2.04;74.15;92591.84;4908692;29;20067;-61
2021/12/05 14:42:29;;;;;;;4.50;1.80;;;;;;;1.94;75.78;92598.09;4910584;29;20056;-61
2021/12/05 14:45:06;;;;;;;2.63;1.38;;;;;;;1.97;75.34;92600.00;4909329;29;20793;-60
2021/12/05 14:47:35;;;;;;;4.00;1.57;;;;;;;1.96;75.74;92607.34;4891070;29;20060;-62
2021/12/05 14:50:11;;;;;;;3.08;1.58;;;;;;;2.08;75.19;92610.78;4898120;28;20051;-60
2021/12/05 14:52:46;;;;;;;5.40;1.98;;;;;;;2.18;75.10;92618.06;4929663;28;20055;-60
2021/12/05 14:55:18;;;;;;;16.08;6.90;;;;;;;2.27;75.17;92614.94;4928171;28;20581;-60
2021/12/05 14:57:54;;;;;;;14.52;6.90;;;;;;;2.16;74.78;92613.06;4929046;28;20051;-62
2021/12/05 15:00:30;;;;;;;6.20;3.00;;;;;;;1.96;75.48;92617.41;4916242;29;21466;-61
2021/12/05 15:03:05;;;;;;;5.97;2.90;;;;;;;1.68;76.76;92618.28;4910392;29;20107;-60
2021/12/05 15:05:37;;;;;;;7.65;3.85;;;;;;;1.90;76.73;92621.69;4910379;29;20107;-60
2021/12/05 15:08:11;;;;;;;15.45;7.93;;;;;;;1.99;76.89;92619.31;4910376;29;20055;-60
2021/12/05 15:10:40;;;;;;;14.43;6.07;;;;;;;1.98;77.46;92620.47;4910753;29;20048;-61
2021/12/05 15:13:09;;;;;;;19.03;9.63;;;;;;;2.05;77.54;92625.84;4909802;29;20055;-61
2021/12/05 15:15:36;;;;;;;11.15;5.00;;;;;;;2.12;77.65;92622.34;4910666;29;20051;-61
2021/12/05 15:18:04;;;;;;;23.45;10.23;;;;;;;2.09;77.25;92620.44;4910225;29;20107;-61
2021/12/05 15:20:35;;;;;;;20.50;9.60;;;;;;;2.05;77.46;92620.44;4908637;29;20103;-61
2021/12/05 15:23:10;;;;;;;15.30;6.93;;;;;;;1.92;77.90;92622.06;4914133;29;20574;-62
2021/12/05 15:25:39;;;;;;;18.43;8.10;;;;;;;1.78;78.14;92623.63;4914900;29;20048;-62
2021/12/05 15:28:08;;;;;;;19.40;8.70;;;;;;;1.69;78.55;92625.19;4913396;29;20052;-63
2021/12/05 15:30:43;;;;;;;27.35;12.00;;;;;;;1.46;79.71;92633.78;4914050;29;20044;-63
2021/12/05 15:33:22;;;;;;;23.25;11.43;;;;;;;1.35;80.20;92637.25;4913551;29;20047;-62
2021/12/05 15:35:50;;;;;;;17.83;9.45;;;;;;;1.25;80.32;92635.34;4914344;29;20059;-64
2021/12/05 15:38:24;;;;;;;10.40;5.33;;;;;;;1.22;81.07;92641.50;4913282;29;20070;-61
2021/12/05 15:40:55;;;;;;;7.85;4.05;;;;;;;1.26;80.85;92647.69;4914381;29;20052;-62
2021/12/05 15:43:25;;;;;;;6.30;3.28;;;;;;;1.28;81.01;92647.31;4913137;29;20052;-62
2021/12/05 15:45:55;;;;;;;8.80;4.20;;;;;;;1.31;80.76;92651.91;4907980;29;20055;-62
2021/12/05 15:48:29;;;;;;;7.97;3.55;;;;;;;1.28;80.95;92658.88;4894183;29;20395;-62
2021/12/05 15:50:57;;;;;;;7.23;3.77;;;;;;;1.22;80.72;92667.78;4894824;29;20054;-62
2021/12/05 15:53:25;;;;;;;8.48;3.60;;;;;;;1.26;80.70;92655.03;4894970;29;20052;-61
2021/12/05 15:56:03;;;;;;;18.65;6.63;;;;;;;0.98;82.03;92670.06;4895271;29;20053;-61
2021/12/05 15:58:38;;;;;;;19.65;6.63;;;;;;;0.79;82.43;92669.28;4894011;29;21759;-61
2021/12/05 16:01:11;;;;;;;24.95;8.60;;;;;;;0.76;83.44;92674.69;4894319;29;20048;-61
2021/12/05 16:03:50;;;;;;;18.97;7.93;;;;;;;0.93;83.01;92681.28;4893971;29;20044;-61
2021/12/05 16:06:20;;;;;;;14.48;6.93;;;;;;;1.02;82.32;92680.88;4894546;29;20387;-61
2021/12/05 16:08:54;;;;;;;21.08;6.68;;;;;;;1.08;82.33;92687.44;4894978;29;20063;-62
2021/12/05 16:11:21;;;;;;;43.38;17.88;;;;;;;0.97;82.09;92692.84;4894184;29;20824;-61
2021/12/05 16:13:51;;;;;;;35.42;16.88;;;;;;;0.75;83.28;92694.75;4895074;29;20434;-61
2021/12/05 16:16:26;;;;;;;16.83;8.77;;;;;;;0.64;83.89;92699.34;4895706;29;20051;-62
2021/12/05 16:19:06;;;;;;;14.85;7.53;;;;;;;0.57;83.86;92698.19;4899122;29;20049;-62
2021/12/05 16:21:36;;;;;;;35.08;14.73;;;;;;;0.51;84.24;92698.94;4898142;29;20829;-61
2021/12/05 16:24:15;;;;;;;20.08;8.05;;;;;;;0.57;84.23;92700.13;4896903;29;20063;-60
2021/12/05 16:26:45;;;;;;;16.08;7.80;;;;;;;0.57;84.65;92700.13;4898891;29;20040;-62
2021/12/05 16:29:23;;;;;;;24.63;10.90;;;;;;;0.53;84.13;92708.19;4897680;29;20048;-62
2021/12/05 16:31:58;;;;;;;75.72;31.58;;;;;;;0.45;83.90;92692.38;4898811;29;20056;-61
2021/12/05 16:34:33;;;;;;;23.38;11.20;;;;;;;0.34;84.69;92692.31;4897480;29;20837;-62
2021/12/05 16:37:07;;;;;;;15.68;7.07;;;;;;;0.23;84.13;92696.94;4897952;29;20044;-62
2021/12/05 16:39:37;;;;;;;16.85;7.38;;;;;;;0.12;84.75;92699.56;4898305;29;20048;-61
2021/12/05 16:42:13;;;;;;;12.07;5.70;;;;;;;-0.05;85.60;92698.34;4897898;29;20576;-62
2021/12/05 16:44:54;;;;;;;13.75;4.93;;;;;;;-0.09;85.03;92705.66;4898479;29;20044;-62
2021/12/05 16:47:28;;;;;;;20.27;8.38;;;;;;;-0.09;84.99;92714.50;4915014;29;21723;-61
2021/12/05 16:49:57;;;;;;;33.05;12.07;;;;;;;-0.15;85.30;92701.75;4916626;29;20066;-61
2021/12/05 16:52:39;;;;;;;22.48;9.40;;;;;;;-0.22;85.10;92705.97;4916893;29;20102;-61
2021/12/05 16:55:20;;;;;;;15.60;7.27;;;;;;;-0.25;84.79;92705.94;4916625;29;20058;-61
2021/12/05 16:57:57;;;;;;;9.45;4.93;;;;;;;-0.33;85.73;92705.13;4917321;29;20051;-62
2021/12/05 17:00:28;;;;;;;8.68;4.43;;;;;;;-0.38;85.48;92704.69;4915687;29;20746;-62
2021/12/05 17:03:05;;;;;;;9.18;4.28;;;;;;;-0.59;86.92;92700.72;4916443;29;20056;-62
2021/12/05 17:05:42;;;;;;;7.72;4.22;;;;;;;-0.62;87.35;92707.63;4917268;29;20090;-62
2021/12/05 17:08:16;;;;;;;8.20;4.20;;;;;;;-0.72;88.10;92700.25;4915896;29;20051;-62
2021/12/05 17:10:49;;;;;;;8.60;4.15;;;;;;;-0.70;88.23;92714.13;4931527;29;20044;-62
2021/12/05 17:13:22;;;;;;;8.68;4.72;;;;;;;-0.69;87.94;92715.66;4916039;29;20478;-61
2021/12/05 17:16:08;;;;;;;18.33;9.40;;;;;;;-1.02;90.05;92719.25;4916772;29;20060;-62
2021/12/05 17:18:45;;;;;;;18.45;9.48;;;;;;;-1.00;90.20;92722.34;4915617;29;21827;-61
2021/12/05 17:21:17;;;;;;;16.23;8.03;;;;;;;-0.83;89.48;92724.41;4916077;29;20060;-62
2021/12/05 17:23:46;;;;;;;22.42;11.23;;;;;;;-0.73;88.77;92739.09;4916607;29;20047;-62
2021/12/05 17:26:35;;;;;;;28.90;13.85;;;;;;;-0.71;89.26;92734.13;4915844;29;20044;-60
2021/12/05 17:29:09;;;;;;;40.58;17.85;;;;;;;-0.82;88.84;92734.03;4914752;29;20151;-60
2021/12/05 17:31:43;;;;;;;34.35;16.77;;;;;;;-0.79;88.94;92724.44;4916521;29;20489;-60
2021/12/05 17:34:13;;;;;;;23.97;11.30;;;;;;;-0.89;87.88;92725.88;4915383;29;20103;-61
2021/12/05 17:36:43;;;;;;;20.15;10.45;;;;;;;-0.91;87.53;92730.88;4915988;29;20044;-61
2021/12/05 17:39:14;;;;;;;22.90;11.55;;;;;;;-0.93;88.32;92730.47;4915345;29;20056;-62
2021/12/05 17:41:44;;;;;;;19.17;9.43;;;;;;;-0.97;88.43;92737.75;4911476;28;20503;-61
2021/12/05 17:44:13;;;;;;;40.60;18.88;;;;;;;-1.25;89.94;92746.34;4917915;28;20056;-61